createdAt,value
2022-08-17T00:00:42.683Z,17.50
2022-08-17T00:03:10.356Z,17.70
2022-08-17T00:05:43.923Z,17.67
2022-08-17T00:08:13.524Z,17.52
2022-08-17T00:10:42.274Z,17.49
2022-08-17T00:13:20.877Z,17.40
2022-08-17T00:15:51.340Z,17.64
2022-08-17T00:19:01.270Z,17.46
2022-08-17T00:21:10.520Z,17.44
2022-08-17T00:23:39.559Z,17.75
2022-08-17T00:26:43.173Z,17.53
2022-08-17T00:29:05.726Z,17.57
2022-08-17T00:31:34.552Z,17.35
2022-08-17T00:34:02.589Z,17.25
2022-08-17T00:36:30.152Z,17.23
2022-08-17T00:38:58.065Z,17.48
2022-08-17T00:41:27.338Z,17.48
2022-08-17T00:43:57.082Z,17.32
2022-08-17T00:46:29.872Z,17.19
2022-08-17T00:48:57.501Z,17.05
2022-08-17T00:51:37.722Z,17.55
2022-08-17T00:54:09.408Z,17.24
2022-08-17T00:56:40.350Z,17.33
2022-08-17T00:59:09.006Z,17.06
2022-08-17T01:01:37.680Z,17.10
2022-08-17T01:04:05.533Z,17.38
2022-08-17T01:06:33.867Z,17.05
2022-08-17T01:09:03.706Z,17.05
2022-08-17T01:11:32.076Z,17.24
2022-08-17T01:13:59.637Z,16.97
2022-08-17T01:16:29.665Z,17.17
2022-08-17T01:18:59.155Z,17.15
2022-08-17T01:21:46.922Z,16.98
2022-08-17T01:24:15.046Z,17.19
2022-08-17T01:26:43.932Z,17.01
2022-08-17T01:29:12.265Z,16.76
2022-08-17T01:31:45.914Z,16.93
2022-08-17T01:34:15.134Z,17.06
2022-08-17T01:36:44.480Z,17.07
2022-08-17T01:39:16.004Z,16.99
2022-08-17T01:41:45.613Z,16.90
2022-08-17T01:44:14.498Z,16.76
2022-08-17T01:46:42.458Z,16.89
2022-08-17T01:49:11.381Z,16.87
2022-08-17T01:51:39.484Z,16.94
2022-08-17T01:54:10.081Z,16.84
2022-08-17T01:56:40.400Z,16.75
2022-08-17T01:59:11.561Z,17.09
2022-08-17T02:01:40.186Z,16.88
2022-08-17T02:04:08.783Z,16.84
2022-08-17T02:06:53.698Z,16.70
2022-08-17T02:09:25.330Z,16.73
2022-08-17T02:11:54.522Z,16.82
2022-08-17T02:14:23.756Z,16.79
2022-08-17T02:16:51.459Z,16.77
2022-08-17T02:19:19.458Z,16.66
2022-08-17T02:21:48.712Z,16.92
2022-08-17T02:24:58.461Z,16.77
2022-08-17T02:27:07.497Z,16.73
2022-08-17T02:29:35.182Z,16.95
2022-08-17T02:32:05.581Z,16.79
2022-08-17T02:34:33.530Z,16.66
2022-08-17T02:37:01.101Z,17.04
2022-08-17T02:39:28.692Z,17.17
2022-08-17T02:42:03.802Z,17.35
2022-08-17T02:44:35.371Z,17.09
2022-08-17T02:47:08.704Z,17.19
2022-08-17T02:49:36.312Z,17.17
2022-08-17T02:52:07.852Z,17.23
2022-08-17T02:54:40.567Z,16.99
2022-08-17T02:57:10.516Z,17.11
2022-08-17T02:59:39.858Z,17.21
2022-08-17T03:02:08.540Z,16.91
2022-08-17T03:04:36.418Z,17.17
2022-08-17T03:07:05.091Z,17.27
2022-08-17T03:09:33.159Z,16.93
2022-08-17T03:12:06.770Z,17.11
2022-08-17T03:14:41.109Z,17.04
2022-08-17T03:17:17.016Z,17.26
2022-08-17T03:19:45.507Z,17.40
2022-08-17T03:22:36.693Z,17.43
2022-08-17T03:25:01.040Z,17.38
2022-08-17T03:27:31.517Z,17.58
2022-08-17T03:29:59.016Z,18.08
2022-08-17T03:32:26.987Z,18.00
2022-08-17T03:34:58.180Z,17.83
2022-08-17T03:37:25.792Z,17.87
2022-08-17T03:39:54.766Z,18.02
2022-08-17T03:42:32.553Z,18.09
2022-08-17T03:45:01.350Z,18.26
2022-08-17T03:47:52.570Z,18.48
2022-08-17T03:50:20.523Z,18.75
2022-08-17T03:53:08.786Z,19.28
2022-08-17T03:55:55.840Z,19.40
2022-08-17T03:58:23.613Z,19.60
2022-08-17T04:00:51.496Z,19.68
2022-08-17T04:03:19.653Z,19.92
2022-08-17T04:05:47.227Z,19.90
2022-08-17T04:08:14.746Z,20.35
2022-08-17T04:10:44.969Z,20.31
2022-08-17T04:13:13.347Z,20.66
2022-08-17T04:15:41.019Z,20.87
2022-08-17T04:18:11.005Z,21.10
2022-08-17T04:20:38.774Z,21.31
2022-08-17T04:23:11.868Z,21.48
2022-08-17T04:25:44.198Z,21.67
2022-08-17T04:28:16.219Z,21.92
2022-08-17T04:30:45.516Z,22.10
2022-08-17T04:33:14.701Z,22.27
2022-08-17T04:35:47.240Z,22.33
2022-08-17T04:38:20.139Z,22.61
2022-08-17T04:41:06.871Z,22.86
2022-08-17T04:43:35.590Z,22.67
2022-08-17T04:48:54.897Z,23.28
2022-08-17T04:51:28.639Z,23.69
2022-08-17T04:54:00.143Z,23.81
2022-08-17T04:59:16.452Z,24.31
2022-08-17T05:01:45.738Z,24.71
2022-08-17T05:04:32.996Z,24.91
2022-08-17T05:07:04.876Z,25.28
2022-08-17T05:09:32.819Z,25.53
2022-08-17T05:12:01.994Z,25.76
2022-08-17T05:14:33.569Z,26.04
2022-08-17T05:17:04.140Z,26.26
2022-08-17T05:19:37.346Z,25.92
2022-08-17T05:22:05.949Z,26.55
2022-08-17T05:24:38.722Z,26.96
2022-08-17T05:27:14.308Z,27.25
2022-08-17T05:29:49.010Z,27.47
2022-08-17T05:32:38.550Z,27.59
2022-08-17T05:35:05.537Z,27.89
2022-08-17T05:37:33.635Z,28.13
2022-08-17T05:40:01.261Z,28.21
2022-08-17T05:42:30.581Z,28.27
2022-08-17T05:44:59.151Z,28.70
2022-08-17T05:47:27.240Z,29.05
2022-08-17T05:49:55.102Z,28.96
2022-08-17T05:52:29.211Z,29.21
2022-08-17T05:55:18.358Z,29.61
2022-08-17T05:58:00.298Z,29.91
2022-08-17T06:00:48.678Z,30.13
2022-08-17T06:03:32.048Z,30.43
2022-08-17T06:05:59.664Z,30.61
2022-08-17T06:08:48.475Z,30.45
2022-08-17T06:11:20.517Z,30.14
2022-08-17T06:13:59.220Z,30.26
2022-08-17T06:16:34.449Z,31.13
2022-08-17T06:19:06.206Z,31.75
2022-08-17T06:21:35.990Z,31.69
2022-08-17T06:24:18.660Z,32.10
2022-08-17T06:26:46.922Z,30.65
2022-08-17T06:29:18.590Z,31.67
2022-08-17T06:31:46.627Z,32.35
2022-08-17T06:34:14.208Z,32.84
2022-08-17T06:36:54.461Z,32.19
2022-08-17T06:39:23.122Z,32.93
2022-08-17T06:42:06.767Z,33.17
2022-08-17T06:44:49.775Z,33.26
2022-08-17T06:47:32.063Z,33.02
2022-08-17T06:50:14.841Z,33.86
2022-08-17T06:52:50.528Z,34.08
2022-08-17T06:55:33.246Z,33.27
2022-08-17T06:58:16.710Z,34.31
2022-08-17T07:00:46.576Z,33.30
2022-08-17T07:03:22.029Z,34.35
2022-08-17T07:05:55.266Z,34.06
2022-08-17T07:08:41.732Z,34.08
2022-08-17T07:11:13.346Z,34.41
2022-08-17T07:13:51.389Z,34.91
2022-08-17T07:16:19.799Z,35.27
2022-08-17T07:18:50.435Z,34.30
2022-08-17T07:21:26.539Z,35.28
2022-08-17T07:23:54.796Z,35.94
2022-08-17T07:26:24.596Z,35.78
2022-08-17T07:28:52.310Z,34.61
2022-08-17T07:31:21.292Z,35.42
2022-08-17T07:34:03.757Z,35.71
2022-08-17T07:36:34.147Z,36.04
2022-08-17T07:39:02.468Z,35.94
2022-08-17T07:41:57.863Z,36.40
2022-08-17T07:44:20.064Z,36.39
2022-08-17T07:47:10.612Z,36.40
2022-08-17T07:49:40.128Z,36.49
2022-08-17T07:52:13.544Z,36.69
2022-08-17T07:55:00.057Z,37.04
2022-08-17T07:57:31.728Z,37.21
2022-08-17T08:00:02.139Z,36.25
2022-08-17T08:02:45.745Z,36.34
2022-08-17T08:05:14.195Z,36.62
2022-08-17T08:08:01.045Z,36.41
2022-08-17T08:10:29.222Z,36.63
2022-08-17T08:13:06.657Z,36.59
2022-08-17T08:15:39.789Z,36.77
2022-08-17T08:18:55.041Z,37.48
2022-08-17T08:21:30.603Z,37.50
2022-08-17T08:23:58.181Z,37.86
2022-08-17T08:26:46.727Z,38.04
2022-08-17T08:29:34.609Z,37.80
2022-08-17T08:32:08.009Z,37.70
2022-08-17T08:35:02.703Z,38.12
2022-08-17T08:37:52.401Z,37.19
2022-08-17T08:40:31.388Z,37.29
2022-08-17T08:43:22.419Z,37.85
2022-08-17T08:45:56.794Z,38.17
2022-08-17T08:48:55.666Z,37.92
2022-08-17T08:51:28.005Z,37.21
2022-08-17T08:53:55.837Z,36.67
2022-08-17T08:57:19.494Z,38.54
2022-08-17T08:59:58.302Z,38.28
2022-08-17T09:02:41.448Z,38.59
2022-08-17T09:05:18.441Z,38.43
2022-08-17T09:07:57.278Z,37.85
2022-08-17T09:10:35.319Z,38.45
2022-08-17T09:13:12.181Z,38.63
2022-08-17T09:15:48.315Z,38.73
2022-08-17T09:19:00.337Z,39.58
2022-08-17T09:21:08.342Z,39.69
2022-08-17T09:23:35.936Z,39.60
2022-08-17T09:26:12.130Z,40.18
2022-08-17T09:28:43.760Z,40.02
2022-08-17T09:31:20.673Z,38.81
2022-08-17T09:33:49.450Z,39.38
2022-08-17T09:36:26.226Z,39.45
2022-08-17T09:39:10.689Z,39.33
2022-08-17T09:41:48.939Z,38.20
2022-08-17T09:44:31.514Z,39.42
2022-08-17T09:47:05.752Z,39.58
2022-08-17T09:49:39.557Z,39.22
2022-08-17T09:52:18.995Z,39.50
2022-08-17T09:54:47.643Z,39.89
2022-08-17T09:57:32.476Z,40.05
2022-08-17T10:00:16.672Z,37.52
2022-08-17T10:06:14.240Z,39.01
2022-08-17T10:08:55.195Z,39.50
2022-08-17T10:11:52.315Z,39.47
2022-08-17T10:14:37.671Z,39.91
2022-08-17T10:17:21.579Z,40.48
2022-08-17T10:19:55.799Z,39.08
2022-08-17T10:22:55.799Z,37.71
2022-08-17T10:25:54.619Z,35.27
2022-08-17T10:28:30.089Z,33.82
2022-08-17T10:31:30.954Z,39.35
2022-08-17T10:34:19.074Z,39.31
2022-08-17T10:36:49.978Z,39.66
2022-08-17T10:39:31.188Z,38.96
2022-08-17T10:42:03.570Z,39.64
2022-08-17T10:44:41.428Z,38.41
2022-08-17T10:47:12.027Z,39.57
2022-08-17T10:49:48.284Z,38.97
2022-08-17T10:52:30.909Z,39.68
2022-08-17T10:55:01.969Z,39.00
2022-08-17T10:57:32.008Z,39.50
2022-08-17T11:00:18.888Z,38.87
2022-08-17T11:02:50.286Z,37.80
2022-08-17T11:05:31.330Z,38.93
2022-08-17T11:08:19.202Z,38.75
2022-08-17T11:11:06.616Z,37.84
2022-08-17T11:13:46.736Z,38.38
2022-08-17T11:16:33.343Z,37.71
2022-08-17T11:19:05.333Z,36.13
2022-08-17T11:21:42.516Z,36.39
2022-08-17T11:24:19.425Z,37.69
2022-08-17T11:27:01.054Z,38.42
2022-08-17T11:29:52.553Z,38.59
2022-08-17T11:32:31.511Z,37.51
2022-08-17T11:35:19.999Z,38.04
2022-08-17T11:37:50.882Z,39.16
2022-08-17T11:40:28.198Z,38.21
2022-08-17T11:43:16.401Z,38.82
2022-08-17T11:46:07.437Z,36.19
2022-08-17T11:48:56.704Z,36.79
2022-08-17T11:51:49.035Z,34.51
2022-08-17T11:54:32.398Z,34.20
2022-08-17T11:57:21.798Z,35.39
2022-08-17T11:59:52.324Z,36.29
2022-08-17T12:02:20.428Z,35.11
2022-08-17T12:05:11.935Z,33.29
2022-08-17T12:07:52.300Z,33.51
2022-08-17T12:10:22.171Z,33.76
2022-08-17T12:12:53.614Z,34.81
2022-08-17T12:15:32.745Z,34.05
2022-08-17T12:18:00.635Z,35.26
2022-08-17T12:20:32.975Z,35.16
2022-08-17T12:23:12.701Z,35.09
2022-08-17T12:25:49.713Z,35.20
2022-08-17T12:28:27.624Z,35.05
2022-08-17T12:31:00.131Z,35.30
2022-08-17T12:33:28.955Z,36.31
2022-08-17T12:36:07.765Z,36.53
2022-08-17T12:38:36.687Z,36.39
2022-08-17T12:41:24.645Z,36.66
2022-08-17T12:44:09.805Z,36.68
2022-08-17T12:46:47.022Z,37.16
2022-08-17T12:49:44.034Z,37.14
2022-08-17T12:52:12.678Z,37.19
2022-08-17T12:54:51.922Z,37.04
2022-08-17T12:57:23.561Z,36.99
2022-08-17T12:59:53.749Z,37.33
2022-08-17T13:02:24.958Z,37.78
2022-08-17T13:04:52.806Z,37.23
2022-08-17T13:07:32.765Z,37.84
2022-08-17T13:10:00.455Z,38.28
2022-08-17T13:12:30.450Z,37.96
2022-08-17T13:14:59.377Z,38.39
2022-08-17T13:17:29.237Z,38.48
2022-08-17T13:19:59.885Z,38.54
2022-08-17T13:22:29.749Z,38.75
2022-08-17T13:25:01.119Z,38.14
2022-08-17T13:27:30.511Z,38.42
2022-08-17T13:30:00.918Z,38.62
2022-08-17T13:32:33.594Z,37.31
2022-08-17T13:35:15.085Z,36.14
2022-08-17T13:38:02.354Z,36.59
2022-08-17T13:40:33.334Z,36.69
2022-08-17T13:43:03.656Z,37.00
2022-08-17T13:45:35.344Z,37.95
2022-08-17T13:48:16.012Z,37.51
2022-08-17T13:50:49.747Z,37.53
2022-08-17T13:53:17.406Z,37.32
2022-08-17T13:55:51.288Z,37.14
2022-08-17T13:58:24.089Z,37.02
2022-08-17T14:00:52.217Z,36.90
2022-08-17T14:03:20.663Z,37.06
2022-08-17T14:05:48.986Z,37.40
2022-08-17T14:11:03.843Z,37.31
2022-08-17T14:13:33.670Z,36.97
2022-08-17T14:16:01.329Z,36.92
2022-08-17T14:18:35.523Z,37.30
2022-08-17T14:21:17.802Z,37.47
2022-08-17T14:23:49.060Z,37.58
2022-08-17T14:26:23.303Z,38.24
2022-08-17T14:28:56.414Z,38.15
2022-08-17T14:31:24.624Z,38.43
2022-08-17T14:33:52.875Z,38.89
2022-08-17T14:36:20.518Z,39.00
2022-08-17T14:38:48.260Z,39.03
2022-08-17T14:41:20.040Z,39.07
2022-08-17T14:43:50.432Z,38.63
2022-08-17T14:46:20.956Z,38.72
2022-08-17T14:48:52.733Z,38.80
2022-08-17T14:51:23.622Z,38.40
2022-08-17T14:53:51.266Z,38.22
2022-08-17T14:56:18.877Z,38.24
2022-08-17T14:58:46.857Z,38.00
2022-08-17T15:01:15.038Z,37.98
2022-08-17T15:03:42.807Z,37.88
2022-08-17T15:06:14.907Z,37.93
2022-08-17T15:08:44.462Z,37.58
2022-08-17T15:11:14.569Z,37.33
2022-08-17T15:13:52.174Z,37.13
2022-08-17T15:16:21.244Z,37.05
2022-08-17T15:18:49.418Z,37.05
2022-08-17T15:21:17.103Z,36.85
2022-08-17T15:23:45.064Z,36.79
2022-08-17T15:26:12.684Z,36.11
2022-08-17T15:28:40.312Z,34.43
2022-08-17T15:31:08.325Z,33.41
2022-08-17T15:33:36.019Z,32.46
2022-08-17T15:36:06.731Z,31.77
2022-08-17T15:38:37.041Z,31.48
2022-08-17T15:41:04.594Z,31.34
2022-08-17T15:43:32.966Z,31.13
2022-08-17T15:46:02.015Z,31.40
2022-08-17T15:48:42.111Z,30.75
2022-08-17T15:51:16.919Z,30.73
2022-08-17T15:53:46.675Z,30.23
2022-08-17T15:56:15.684Z,29.51
2022-08-17T15:58:44.053Z,29.37
2022-08-17T16:01:14.312Z,29.32
2022-08-17T16:04:01.379Z,28.60
2022-08-17T16:06:32.798Z,28.28
2022-08-17T16:09:00.968Z,28.11
2022-08-17T16:11:28.569Z,28.32
2022-08-17T16:13:56.299Z,28.52
2022-08-17T16:16:24.579Z,28.50
2022-08-17T16:18:58.469Z,28.40
2022-08-17T16:21:27.698Z,28.92
2022-08-17T16:24:00.536Z,28.75
2022-08-17T16:26:29.552Z,28.39
2022-08-17T16:28:57.752Z,28.63
2022-08-17T16:31:25.529Z,28.51
2022-08-17T16:36:38.629Z,27.17
2022-08-17T16:39:06.662Z,27.07
2022-08-17T16:41:45.457Z,26.88
2022-08-17T16:44:15.607Z,26.94
2022-08-17T16:46:45.389Z,26.66
2022-08-17T16:49:35.821Z,26.49
2022-08-17T16:52:07.585Z,26.24
2022-08-17T16:54:37.803Z,26.24
2022-08-17T16:57:05.678Z,25.79
2022-08-17T16:59:41.978Z,25.70
2022-08-17T17:02:14.329Z,25.44
2022-08-17T17:04:53.638Z,25.36
2022-08-17T17:07:38.058Z,25.03
2022-08-17T17:10:08.226Z,24.47
2022-08-17T17:13:01.546Z,24.85
2022-08-17T17:15:29.006Z,24.70
2022-08-17T17:18:01.979Z,24.51
2022-08-17T17:20:40.748Z,24.36
2022-08-17T17:23:13.481Z,24.59
2022-08-17T17:25:45.316Z,24.50
2022-08-17T17:28:20.136Z,23.85
2022-08-17T17:30:47.596Z,23.82
2022-08-17T17:33:18.059Z,24.09
2022-08-17T17:35:49.116Z,23.87
2022-08-17T17:38:23.555Z,23.35
2022-08-17T17:41:09.203Z,23.26
2022-08-17T17:43:40.106Z,23.06
2022-08-17T17:46:28.313Z,23.00
2022-08-17T17:49:03.325Z,23.26
2022-08-17T17:52:06.590Z,22.93
2022-08-17T17:54:40.769Z,22.87
2022-08-17T17:57:18.063Z,22.85
2022-08-17T17:59:54.995Z,22.95
2022-08-17T18:05:51.575Z,22.84
2022-08-17T18:08:32.131Z,22.88
2022-08-17T18:11:24.704Z,23.25
2022-08-17T18:14:14.652Z,23.30
2022-08-17T18:16:44.126Z,23.03
2022-08-17T18:19:15.916Z,22.34
2022-08-17T18:21:46.712Z,22.93
2022-08-17T18:24:14.319Z,22.34
2022-08-17T18:26:44.961Z,22.41
2022-08-17T18:29:23.055Z,22.24
2022-08-17T18:32:10.673Z,21.96
2022-08-17T18:34:47.142Z,22.08
2022-08-17T18:37:29.660Z,22.23
2022-08-17T18:39:57.659Z,22.27
2022-08-17T18:42:26.940Z,22.30
2022-08-17T18:44:55.584Z,21.91
2022-08-17T18:47:25.330Z,22.02
2022-08-17T18:49:57.911Z,21.74
2022-08-17T18:52:30.855Z,21.90
2022-08-17T18:55:06.209Z,21.86
2022-08-17T18:57:54.367Z,21.91
2022-08-17T19:00:40.592Z,21.70
2022-08-17T19:03:22.563Z,21.70
2022-08-17T19:05:52.203Z,21.47
2022-08-17T19:08:32.472Z,21.38
2022-08-17T19:11:08.969Z,21.46
2022-08-17T19:13:39.975Z,21.89
2022-08-17T19:16:15.734Z,21.70
2022-08-17T19:18:51.243Z,21.41
2022-08-17T19:21:24.252Z,21.87
2022-08-17T19:24:05.514Z,22.27
2022-08-17T19:26:54.895Z,21.72
2022-08-17T19:29:27.859Z,21.89
2022-08-17T19:31:58.837Z,21.54
2022-08-17T19:34:33.969Z,21.79
2022-08-17T19:37:07.821Z,21.38
2022-08-17T19:39:50.944Z,20.96
2022-08-17T19:42:57.117Z,20.49
2022-08-17T19:45:40.433Z,21.00
2022-08-17T19:48:32.600Z,21.27
2022-08-17T19:51:23.672Z,21.41
2022-08-17T19:54:06.648Z,21.15
2022-08-17T19:57:10.356Z,20.87
2022-08-17T19:59:49.757Z,20.63
2022-08-17T20:02:35.980Z,21.13
2022-08-17T20:05:54.609Z,21.04
2022-08-17T20:16:27.013Z,21.34
2022-08-17T20:19:06.378Z,21.01
2022-08-17T20:21:42.220Z,21.39
2022-08-17T20:24:20.559Z,21.62
2022-08-17T20:27:08.390Z,21.27
2022-08-17T20:29:56.254Z,20.51
2022-08-17T20:32:26.397Z,20.63
2022-08-17T20:35:08.898Z,20.41
2022-08-17T20:37:39.593Z,20.54
2022-08-17T20:40:10.091Z,20.13
2022-08-17T20:42:39.798Z,20.04
2022-08-17T20:45:31.361Z,19.84
2022-08-17T20:48:36.777Z,19.56
2022-08-17T20:51:11.325Z,19.58
2022-08-17T20:53:48.388Z,19.99
2022-08-17T20:56:36.497Z,19.81
2022-08-17T20:59:04.393Z,19.79
2022-08-17T21:01:42.868Z,19.79
2022-08-17T21:04:30.727Z,19.63
2022-08-17T21:07:17.787Z,20.03
2022-08-17T21:09:45.809Z,19.96
2022-08-17T21:12:33.302Z,19.79
2022-08-17T21:15:04.286Z,19.53
2022-08-17T21:17:38.392Z,19.82
2022-08-17T21:20:12.880Z,19.78
2022-08-17T21:22:56.864Z,19.72
2022-08-17T21:25:37.565Z,19.63
2022-08-17T21:28:15.674Z,19.77
2022-08-17T21:30:49.851Z,19.94
2022-08-17T21:33:21.143Z,19.38
2022-08-17T21:35:51.188Z,19.26
2022-08-17T21:38:21.004Z,19.44
2022-08-17T21:40:51.619Z,19.18
2022-08-17T21:43:25.036Z,18.97
2022-08-17T21:46:01.561Z,19.19
2022-08-17T21:48:30.818Z,19.21
2022-08-17T21:50:58.716Z,19.14
2022-08-17T21:53:33.129Z,19.01
2022-08-17T21:56:01.413Z,18.64
2022-08-17T21:58:31.017Z,18.56
2022-08-17T22:01:17.292Z,18.40
2022-08-17T22:03:48.823Z,18.54
2022-08-17T22:06:20.154Z,18.67
2022-08-17T22:09:26.428Z,18.89
2022-08-17T22:12:09.338Z,19.18
2022-08-17T22:14:52.913Z,19.33
2022-08-17T22:17:23.636Z,19.41
2022-08-17T22:20:15.306Z,19.34
2022-08-17T22:23:07.120Z,19.02
2022-08-17T22:25:36.995Z,18.32
2022-08-17T22:28:06.358Z,17.98
2022-08-17T22:30:35.755Z,17.94
2022-08-17T22:33:22.207Z,18.17
2022-08-17T22:35:50.253Z,18.23
2022-08-17T22:38:20.361Z,18.14
2022-08-17T22:40:50.035Z,18.67
2022-08-17T22:43:18.860Z,18.92
2022-08-17T22:45:57.801Z,18.72
2022-08-17T22:48:28.585Z,18.21
2022-08-17T22:51:13.363Z,18.54
2022-08-17T22:54:08.548Z,18.49
2022-08-17T22:56:55.404Z,18.41
2022-08-17T22:59:43.919Z,18.52
2022-08-17T23:02:31.568Z,18.71
2022-08-17T23:05:25.720Z,18.42
2022-08-17T23:07:53.651Z,18.25
2022-08-17T23:10:21.205Z,18.26
2022-08-17T23:12:48.817Z,18.46
2022-08-17T23:15:18.111Z,18.39
2022-08-17T23:17:46.111Z,18.45
2022-08-17T23:20:15.385Z,18.31
2022-08-17T23:22:51.344Z,18.17
2022-08-17T23:25:31.030Z,18.06
2022-08-17T23:28:01.869Z,18.09
2022-08-17T23:30:31.462Z,18.08
2022-08-17T23:33:01.604Z,18.03
2022-08-17T23:35:39.868Z,17.89
2022-08-17T23:38:12.821Z,17.97
2022-08-17T23:40:40.675Z,17.91
2022-08-17T23:43:17.644Z,18.10
2022-08-17T23:45:57.719Z,18.42
2022-08-17T23:48:36.189Z,18.07
2022-08-17T23:51:12.715Z,17.88
2022-08-17T23:53:46.456Z,17.89
2022-08-17T23:56:14.584Z,17.69
2022-08-17T23:58:43.080Z,17.29
